sensor_id;sensor_type;location;lat;lon;timestamp;P1;durP1;ratioP1;P2;durP2;ratioP2
2622;SDS011;1321;48.690;9.022;2024-01-15T00:01:56;14.27;;;7.80;;
2622;SDS011;1321;48.690;9.022;2024-01-15T00:04:25;12.07;;;7.38;;
2622;SDS011;1321;48.690;9.022;2024-01-15T00:06:53;11.73;;;7.03;;
2622;SDS011;1321;48.690;9.022;2024-01-15T00:09:22;10.05;;;7.10;;
2622;SDS011;1321;48.690;9.022;2024-01-15T00:11:50;17.10;;;8.35;;
2622;SDS011;1321;48.690;9.022;2024-01-15T00:14:19;13.15;;;7.50;;
2622;SDS011;1321;48.690;9.022;2024-01-15T00:16:47;10.60;;;7.75;;
2622;SDS011;1321;48.690;9.022;2024-01-15T00:19:18;12.98;;;7.43;;
2622;SDS011;1321;48.690;9.022;2024-01-15T00:21:46;12.15;;;6.43;;
2622;SDS011;1321;48.690;9.022;2024-01-15T00:24:15;15.18;;;7.60;;
2622;SDS011;1321;48.690;9.022;2024-01-15T00:26:44;11.40;;;6.25;;
2622;SDS011;1321;48.690;9.022;2024-01-15T00:29:12;13.48;;;7.13;;
2622;SDS011;1321;48.690;9.022;2024-01-15T00:31:40;11.85;;;7.18;;
2622;SDS011;1321;48.690;9.022;2024-01-15T00:34:08;15.30;;;7.20;;
2622;SDS011;1321;48.690;9.022;2024-01-15T00:36:38;12.25;;;7.10;;
2622;SDS011;1321;48.690;9.022;2024-01-15T00:39:07;14.68;;;7.70;;
2622;SDS011;1321;48.690;9.022;2024-01-15T00:41:37;12.88;;;7.43;;
2622;SDS011;1321;48.690;9.022;2024-01-15T00:44:05;17.27;;;8.38;;
2622;SDS011;1321;48.690;9.022;2024-01-15T00:46:41;10.10;;;6.22;;
2622;SDS011;1321;48.690;9.022;2024-01-15T00:49:11;14.02;;;7.28;;
2622;SDS011;1321;48.690;9.022;2024-01-15T00:51:41;9.80;;;6.38;;
2622;SDS011;1321;48.690;9.022;2024-01-15T00:54:10;12.20;;;7.32;;
2622;SDS011;1321;48.690;9.022;2024-01-15T00:56:39;13.18;;;7.82;;
2622;SDS011;1321;48.690;9.022;2024-01-15T00:59:07;13.27;;;6.65;;
2622;SDS011;1321;48.690;9.022;2024-01-15T01:01:36;9.65;;;6.57;;
2622;SDS011;1321;48.690;9.022;2024-01-15T01:04:09;13.98;;;6.80;;
2622;SDS011;1321;48.690;9.022;2024-01-15T01:06:38;12.50;;;7.80;;
2622;SDS011;1321;48.690;9.022;2024-01-15T01:09:07;13.93;;;7.15;;
2622;SDS011;1321;48.690;9.022;2024-01-15T01:11:36;14.90;;;8.35;;
2622;SDS011;1321;48.690;9.022;2024-01-15T01:14:04;9.77;;;6.57;;
2622;SDS011;1321;48.690;9.022;2024-01-15T01:16:33;12.73;;;6.45;;
2622;SDS011;1321;48.690;9.022;2024-01-15T01:19:05;13.00;;;7.43;;
2622;SDS011;1321;48.690;9.022;2024-01-15T01:21:34;11.40;;;8.25;;
2622;SDS011;1321;48.690;9.022;2024-01-15T01:24:03;10.73;;;6.38;;
2622;SDS011;1321;48.690;9.022;2024-01-15T01:26:33;9.95;;;5.80;;
2622;SDS011;1321;48.690;9.022;2024-01-15T01:29:01;10.85;;;6.55;;
2622;SDS011;1321;48.690;9.022;2024-01-15T01:31:29;12.88;;;7.85;;
2622;SDS011;1321;48.690;9.022;2024-01-15T01:33:58;14.32;;;7.22;;
2622;SDS011;1321;48.690;9.022;2024-01-15T01:36:26;12.30;;;6.50;;
2622;SDS011;1321;48.690;9.022;2024-01-15T01:38:55;12.75;;;6.18;;
2622;SDS011;1321;48.690;9.022;2024-01-15T01:41:23;11.20;;;6.55;;
2622;SDS011;1321;48.690;9.022;2024-01-15T01:43:53;12.10;;;6.32;;
2622;SDS011;1321;48.690;9.022;2024-01-15T01:46:21;12.88;;;8.57;;
2622;SDS011;1321;48.690;9.022;2024-01-15T01:48:50;10.25;;;6.28;;
2622;SDS011;1321;48.690;9.022;2024-01-15T01:51:18;14.38;;;7.97;;
2622;SDS011;1321;48.690;9.022;2024-01-15T01:53:49;10.68;;;6.35;;
2622;SDS011;1321;48.690;9.022;2024-01-15T01:56:18;11.40;;;6.72;;
2622;SDS011;1321;48.690;9.022;2024-01-15T01:58:46;12.55;;;7.30;;
2622;SDS011;1321;48.690;9.022;2024-01-15T02:01:17;11.95;;;6.95;;
2622;SDS011;1321;48.690;9.022;2024-01-15T02:03:47;8.88;;;6.25;;
2622;SDS011;1321;48.690;9.022;2024-01-15T02:06:15;8.20;;;5.60;;
2622;SDS011;1321;48.690;9.022;2024-01-15T02:08:44;12.98;;;7.25;;
2622;SDS011;1321;48.690;9.022;2024-01-15T02:11:12;13.10;;;6.53;;
2622;SDS011;1321;48.690;9.022;2024-01-15T02:13:40;10.18;;;6.00;;
2622;SDS011;1321;48.690;9.022;2024-01-15T02:16:09;14.13;;;7.47;;
2622;SDS011;1321;48.690;9.022;2024-01-15T02:18:41;10.90;;;5.88;;
2622;SDS011;1321;48.690;9.022;2024-01-15T02:21:10;12.27;;;8.00;;
2622;SDS011;1321;48.690;9.022;2024-01-15T02:23:40;12.30;;;7.03;;
2622;SDS011;1321;48.690;9.022;2024-01-15T02:26:09;12.30;;;7.93;;
2622;SDS011;1321;48.690;9.022;2024-01-15T02:28:37;13.30;;;8.00;;
2622;SDS011;1321;48.690;9.022;2024-01-15T02:31:06;10.00;;;6.68;;
2622;SDS011;1321;48.690;9.022;2024-01-15T02:33:34;11.65;;;6.53;;
2622;SDS011;1321;48.690;9.022;2024-01-15T02:36:02;11.52;;;6.50;;
2622;SDS011;1321;48.690;9.022;2024-01-15T02:38:31;9.77;;;6.63;;
2622;SDS011;1321;48.690;9.022;2024-01-15T02:41:01;11.35;;;7.18;;
2622;SDS011;1321;48.690;9.022;2024-01-15T02:43:29;13.07;;;7.03;;
2622;SDS011;1321;48.690;9.022;2024-01-15T02:45:57;9.73;;;6.63;;
2622;SDS011;1321;48.690;9.022;2024-01-15T02:48:26;8.07;;;5.90;;
2622;SDS011;1321;48.690;9.022;2024-01-15T02:50:54;13.30;;;6.47;;
2622;SDS011;1321;48.690;9.022;2024-01-15T02:53:23;13.82;;;6.85;;
2622;SDS011;1321;48.690;9.022;2024-01-15T02:55:51;11.70;;;6.97;;
2622;SDS011;1321;48.690;9.022;2024-01-15T02:58:21;10.63;;;6.40;;
2622;SDS011;1321;48.690;9.022;2024-01-15T03:00:49;12.50;;;5.18;;
2622;SDS011;1321;48.690;9.022;2024-01-15T03:03:17;13.70;;;6.63;;
2622;SDS011;1321;48.690;9.022;2024-01-15T03:05:45;8.88;;;5.68;;
2622;SDS011;1321;48.690;9.022;2024-01-15T03:08:14;11.23;;;6.00;;
2622;SDS011;1321;48.690;9.022;2024-01-15T03:10:42;9.93;;;6.28;;
2622;SDS011;1321;48.690;9.022;2024-01-15T03:13:10;9.52;;;5.60;;
2622;SDS011;1321;48.690;9.022;2024-01-15T03:15:40;9.63;;;5.93;;
2622;SDS011;1321;48.690;9.022;2024-01-15T03:18:08;12.23;;;6.75;;
2622;SDS011;1321;48.690;9.022;2024-01-15T03:20:37;13.68;;;7.13;;
2622;SDS011;1321;48.690;9.022;2024-01-15T03:23:06;12.27;;;6.38;;
2622;SDS011;1321;48.690;9.022;2024-01-15T03:25:34;13.07;;;7.22;;
2622;SDS011;1321;48.690;9.022;2024-01-15T03:28:02;14.02;;;7.35;;
2622;SDS011;1321;48.690;9.022;2024-01-15T03:30:31;12.20;;;7.75;;
2622;SDS011;1321;48.690;9.022;2024-01-15T03:33:01;9.60;;;6.38;;
2622;SDS011;1321;48.690;9.022;2024-01-15T03:35:29;9.77;;;6.60;;
2622;SDS011;1321;48.690;9.022;2024-01-15T03:37:58;9.18;;;5.28;;
2622;SDS011;1321;48.690;9.022;2024-01-15T03:40:26;12.00;;;6.25;;
2622;SDS011;1321;48.690;9.022;2024-01-15T03:42:54;9.10;;;6.40;;
2622;SDS011;1321;48.690;9.022;2024-01-15T03:45:23;11.77;;;6.72;;
2622;SDS011;1321;48.690;9.022;2024-01-15T03:47:51;13.63;;;6.47;;
2622;SDS011;1321;48.690;9.022;2024-01-15T03:50:21;9.65;;;5.82;;
2622;SDS011;1321;48.690;9.022;2024-01-15T03:52:49;10.75;;;6.35;;
2622;SDS011;1321;48.690;9.022;2024-01-15T03:55:17;9.80;;;6.30;;
2622;SDS011;1321;48.690;9.022;2024-01-15T03:57:45;13.30;;;6.60;;
2622;SDS011;1321;48.690;9.022;2024-01-15T04:00:14;13.38;;;8.05;;
2622;SDS011;1321;48.690;9.022;2024-01-15T04:02:44;11.15;;;6.80;;
2622;SDS011;1321;48.690;9.022;2024-01-15T04:05:12;13.02;;;7.72;;
2622;SDS011;1321;48.690;9.022;2024-01-15T04:07:41;16.15;;;7.65;;
2622;SDS011;1321;48.690;9.022;2024-01-15T04:10:10;12.90;;;7.40;;
2622;SDS011;1321;48.690;9.022;2024-01-15T04:12:38;9.80;;;6.20;;
2622;SDS011;1321;48.690;9.022;2024-01-15T04:15:06;10.55;;;7.22;;
2622;SDS011;1321;48.690;9.022;2024-01-15T04:17:35;15.00;;;7.90;;
2622;SDS011;1321;48.690;9.022;2024-01-15T04:20:04;12.27;;;7.65;;
2622;SDS011;1321;48.690;9.022;2024-01-15T04:22:33;13.27;;;8.05;;
2622;SDS011;1321;48.690;9.022;2024-01-15T04:25:03;13.38;;;7.55;;
2622;SDS011;1321;48.690;9.022;2024-01-15T04:27:32;12.70;;;6.05;;
2622;SDS011;1321;48.690;9.022;2024-01-15T04:30:00;10.98;;;6.60;;
2622;SDS011;1321;48.690;9.022;2024-01-15T04:32:28;12.73;;;6.93;;
2622;SDS011;1321;48.690;9.022;2024-01-15T04:34:57;10.43;;;5.90;;
2622;SDS011;1321;48.690;9.022;2024-01-15T04:37:25;12.82;;;6.95;;
2622;SDS011;1321;48.690;9.022;2024-01-15T04:39:54;12.05;;;6.63;;
2622;SDS011;1321;48.690;9.022;2024-01-15T04:42:25;13.35;;;7.57;;
2622;SDS011;1321;48.690;9.022;2024-01-15T04:44:53;11.93;;;6.93;;
2622;SDS011;1321;48.690;9.022;2024-01-15T04:47:21;10.50;;;7.40;;
2622;SDS011;1321;48.690;9.022;2024-01-15T04:49:50;10.40;;;7.47;;
2622;SDS011;1321;48.690;9.022;2024-01-15T04:52:19;12.05;;;6.88;;
2622;SDS011;1321;48.690;9.022;2024-01-15T04:54:47;16.80;;;7.88;;
2622;SDS011;1321;48.690;9.022;2024-01-15T04:57:16;14.80;;;8.48;;
2622;SDS011;1321;48.690;9.022;2024-01-15T04:59:45;10.43;;;7.20;;
2622;SDS011;1321;48.690;9.022;2024-01-15T05:02:14;8.35;;;5.82;;
2622;SDS011;1321;48.690;9.022;2024-01-15T05:04:42;11.40;;;7.25;;
2622;SDS011;1321;48.690;9.022;2024-01-15T05:07:10;13.43;;;6.68;;
2622;SDS011;1321;48.690;9.022;2024-01-15T05:09:38;13.60;;;7.22;;
2622;SDS011;1321;48.690;9.022;2024-01-15T05:12:07;15.63;;;8.05;;
2622;SDS011;1321;48.690;9.022;2024-01-15T05:14:35;18.60;;;7.93;;
2622;SDS011;1321;48.690;9.022;2024-01-15T05:17:05;13.43;;;7.50;;
2622;SDS011;1321;48.690;9.022;2024-01-15T05:19:36;9.80;;;6.97;;
2622;SDS011;1321;48.690;9.022;2024-01-15T05:22:05;7.30;;;6.20;;
2622;SDS011;1321;48.690;9.022;2024-01-15T05:24:33;11.45;;;7.45;;
2622;SDS011;1321;48.690;9.022;2024-01-15T05:27:02;14.93;;;9.15;;
2622;SDS011;1321;48.690;9.022;2024-01-15T05:29:31;11.55;;;7.55;;
2622;SDS011;1321;48.690;9.022;2024-01-15T05:31:59;9.32;;;6.75;;
2622;SDS011;1321;48.690;9.022;2024-01-15T05:34:29;12.77;;;7.20;;
2622;SDS011;1321;48.690;9.022;2024-01-15T05:36:58;11.38;;;8.32;;
2622;SDS011;1321;48.690;9.022;2024-01-15T05:39:26;20.15;;;9.73;;
2622;SDS011;1321;48.690;9.022;2024-01-15T05:41:55;13.45;;;7.78;;
2622;SDS011;1321;48.690;9.022;2024-01-15T05:44:23;12.25;;;6.65;;
2622;SDS011;1321;48.690;9.022;2024-01-15T05:46:51;11.75;;;6.95;;
2622;SDS011;1321;48.690;9.022;2024-01-15T05:49:20;14.80;;;7.63;;
2622;SDS011;1321;48.690;9.022;2024-01-15T05:51:50;9.82;;;6.38;;
2622;SDS011;1321;48.690;9.022;2024-01-15T05:54:18;10.75;;;6.43;;
2622;SDS011;1321;48.690;9.022;2024-01-15T05:56:47;11.35;;;6.90;;
2622;SDS011;1321;48.690;9.022;2024-01-15T05:59:15;14.20;;;7.13;;
2622;SDS011;1321;48.690;9.022;2024-01-15T06:01:43;11.10;;;6.65;;
2622;SDS011;1321;48.690;9.022;2024-01-15T06:04:11;11.60;;;6.18;;
2622;SDS011;1321;48.690;9.022;2024-01-15T06:06:40;11.45;;;6.85;;
2622;SDS011;1321;48.690;9.022;2024-01-15T06:09:09;10.23;;;7.07;;
2622;SDS011;1321;48.690;9.022;2024-01-15T06:11:38;10.52;;;7.40;;
2622;SDS011;1321;48.690;9.022;2024-01-15T06:14:06;10.27;;;6.07;;
2622;SDS011;1321;48.690;9.022;2024-01-15T06:16:34;9.00;;;6.85;;
2622;SDS011;1321;48.690;9.022;2024-01-15T06:19:02;8.23;;;6.47;;
2622;SDS011;1321;48.690;9.022;2024-01-15T06:21:31;11.20;;;6.80;;
2622;SDS011;1321;48.690;9.022;2024-01-15T06:24:00;12.02;;;6.13;;
2622;SDS011;1321;48.690;9.022;2024-01-15T06:26:29;11.93;;;6.53;;
2622;SDS011;1321;48.690;9.022;2024-01-15T06:28:58;13.45;;;7.15;;
2622;SDS011;1321;48.690;9.022;2024-01-15T06:31:27;12.38;;;7.93;;
2622;SDS011;1321;48.690;9.022;2024-01-15T06:33:55;9.73;;;6.45;;
2622;SDS011;1321;48.690;9.022;2024-01-15T06:36:24;8.82;;;6.10;;
2622;SDS011;1321;48.690;9.022;2024-01-15T06:38:52;7.55;;;6.43;;
2622;SDS011;1321;48.690;9.022;2024-01-15T06:41:20;8.88;;;6.68;;
2622;SDS011;1321;48.690;9.022;2024-01-15T06:43:49;9.82;;;5.80;;
2622;SDS011;1321;48.690;9.022;2024-01-15T06:46:19;10.63;;;5.95;;
2622;SDS011;1321;48.690;9.022;2024-01-15T06:48:48;8.77;;;6.57;;
2622;SDS011;1321;48.690;9.022;2024-01-15T06:51:17;8.27;;;5.90;;
2622;SDS011;1321;48.690;9.022;2024-01-15T06:53:45;12.35;;;6.88;;
2622;SDS011;1321;48.690;9.022;2024-01-15T06:56:13;13.13;;;6.53;;
2622;SDS011;1321;48.690;9.022;2024-01-15T06:58:41;10.45;;;7.45;;
2622;SDS011;1321;48.690;9.022;2024-01-15T07:01:11;10.43;;;6.20;;
2622;SDS011;1321;48.690;9.022;2024-01-15T07:03:39;12.00;;;7.00;;
2622;SDS011;1321;48.690;9.022;2024-01-15T07:06:08;12.38;;;6.53;;
2622;SDS011;1321;48.690;9.022;2024-01-15T07:08:36;12.07;;;6.90;;
2622;SDS011;1321;48.690;9.022;2024-01-15T07:11:05;12.25;;;6.85;;
2622;SDS011;1321;48.690;9.022;2024-01-15T07:13:33;16.30;;;9.00;;
2622;SDS011;1321;48.690;9.022;2024-01-15T07:16:02;12.95;;;7.30;;
2622;SDS011;1321;48.690;9.022;2024-01-15T07:18:31;10.13;;;6.68;;
2622;SDS011;1321;48.690;9.022;2024-01-15T07:21:00;9.98;;;6.50;;
2622;SDS011;1321;48.690;9.022;2024-01-15T07:23:30;10.55;;;7.90;;
2622;SDS011;1321;48.690;9.022;2024-01-15T07:25:59;10.05;;;5.78;;
2622;SDS011;1321;48.690;9.022;2024-01-15T07:28:28;8.45;;;6.50;;
2622;SDS011;1321;48.690;9.022;2024-01-15T07:30:56;9.38;;;6.85;;
2622;SDS011;1321;48.690;9.022;2024-01-15T07:33:25;14.00;;;7.57;;
2622;SDS011;1321;48.690;9.022;2024-01-15T07:35:54;7.60;;;6.35;;
2622;SDS011;1321;48.690;9.022;2024-01-15T07:38:25;12.85;;;5.97;;
2622;SDS011;1321;48.690;9.022;2024-01-15T07:40:53;8.48;;;5.20;;
2622;SDS011;1321;48.690;9.022;2024-01-15T07:43:21;9.63;;;5.90;;
2622;SDS011;1321;48.690;9.022;2024-01-15T07:45:50;10.50;;;7.22;;
2622;SDS011;1321;48.690;9.022;2024-01-15T07:48:18;11.27;;;6.57;;
2622;SDS011;1321;48.690;9.022;2024-01-15T07:50:47;11.20;;;6.82;;
2622;SDS011;1321;48.690;9.022;2024-01-15T07:53:16;9.73;;;6.68;;
2622;SDS011;1321;48.690;9.022;2024-01-15T07:55:44;8.65;;;5.75;;
2622;SDS011;1321;48.690;9.022;2024-01-15T07:58:13;9.00;;;5.32;;
2622;SDS011;1321;48.690;9.022;2024-01-15T08:00:42;9.52;;;6.00;;
2622;SDS011;1321;48.690;9.022;2024-01-15T08:03:11;12.80;;;6.32;;
2622;SDS011;1321;48.690;9.022;2024-01-15T08:05:40;8.85;;;5.88;;
2622;SDS011;1321;48.690;9.022;2024-01-15T08:08:08;7.63;;;5.15;;
2622;SDS011;1321;48.690;9.022;2024-01-15T08:10:38;8.45;;;5.95;;
2622;SDS011;1321;48.690;9.022;2024-01-15T08:13:06;9.65;;;6.18;;
2622;SDS011;1321;48.690;9.022;2024-01-15T08:15:35;8.18;;;6.10;;
2622;SDS011;1321;48.690;9.022;2024-01-15T08:18:04;11.18;;;5.95;;
2622;SDS011;1321;48.690;9.022;2024-01-15T08:20:33;11.05;;;6.53;;
2622;SDS011;1321;48.690;9.022;2024-01-15T08:23:01;10.27;;;5.35;;
2622;SDS011;1321;48.690;9.022;2024-01-15T08:25:29;9.25;;;5.10;;
2622;SDS011;1321;48.690;9.022;2024-01-15T08:27:59;6.70;;;5.50;;
2622;SDS011;1321;48.690;9.022;2024-01-15T08:30:27;6.05;;;4.95;;
2622;SDS011;1321;48.690;9.022;2024-01-15T08:32:56;11.10;;;5.13;;
2622;SDS011;1321;48.690;9.022;2024-01-15T08:35:34;8.07;;;5.15;;
2622;SDS011;1321;48.690;9.022;2024-01-15T08:38:02;9.95;;;5.25;;
2622;SDS011;1321;48.690;9.022;2024-01-15T08:40:31;6.70;;;5.15;;
2622;SDS011;1321;48.690;9.022;2024-01-15T08:43:01;5.40;;;4.80;;
2622;SDS011;1321;48.690;9.022;2024-01-15T08:45:29;8.57;;;4.13;;
2622;SDS011;1321;48.690;9.022;2024-01-15T08:47:58;6.40;;;4.45;;
2622;SDS011;1321;48.690;9.022;2024-01-15T08:50:27;5.47;;;4.90;;
2622;SDS011;1321;48.690;9.022;2024-01-15T08:52:57;6.93;;;4.50;;
2622;SDS011;1321;48.690;9.022;2024-01-15T08:55:25;6.57;;;4.25;;
2622;SDS011;1321;48.690;9.022;2024-01-15T08:57:53;7.32;;;4.10;;
2622;SDS011;1321;48.690;9.022;2024-01-15T09:00:23;4.47;;;4.07;;
2622;SDS011;1321;48.690;9.022;2024-01-15T09:02:51;4.28;;;3.97;;
2622;SDS011;1321;48.690;9.022;2024-01-15T09:05:20;4.28;;;3.88;;
2622;SDS011;1321;48.690;9.022;2024-01-15T09:07:48;5.80;;;3.88;;
2622;SDS011;1321;48.690;9.022;2024-01-15T09:10:18;4.85;;;4.03;;
2622;SDS011;1321;48.690;9.022;2024-01-15T09:12:47;4.78;;;4.22;;
2622;SDS011;1321;48.690;9.022;2024-01-15T09:15:16;7.15;;;4.30;;
2622;SDS011;1321;48.690;9.022;2024-01-15T09:17:47;5.13;;;3.72;;
2622;SDS011;1321;48.690;9.022;2024-01-15T09:20:16;5.10;;;3.53;;
2622;SDS011;1321;48.690;9.022;2024-01-15T09:22:45;5.28;;;3.63;;
2622;SDS011;1321;48.690;9.022;2024-01-15T09:25:13;4.30;;;3.83;;
2622;SDS011;1321;48.690;9.022;2024-01-15T09:27:41;7.70;;;3.88;;
2622;SDS011;1321;48.690;9.022;2024-01-15T09:30:11;6.15;;;4.00;;
2622;SDS011;1321;48.690;9.022;2024-01-15T09:32:40;7.53;;;4.25;;
2622;SDS011;1321;48.690;9.022;2024-01-15T09:35:10;4.97;;;3.70;;
2622;SDS011;1321;48.690;9.022;2024-01-15T09:37:39;5.65;;;3.85;;
2622;SDS011;1321;48.690;9.022;2024-01-15T09:40:14;6.13;;;4.45;;
2622;SDS011;1321;48.690;9.022;2024-01-15T09:42:43;7.68;;;4.13;;
2622;SDS011;1321;48.690;9.022;2024-01-15T09:45:12;4.95;;;3.53;;
2622;SDS011;1321;48.690;9.022;2024-01-15T09:47:41;4.38;;;3.72;;
2622;SDS011;1321;48.690;9.022;2024-01-15T09:50:14;7.03;;;4.32;;
2622;SDS011;1321;48.690;9.022;2024-01-15T09:52:43;9.10;;;4.85;;
2622;SDS011;1321;48.690;9.022;2024-01-15T09:55:13;5.15;;;4.43;;
2622;SDS011;1321;48.690;9.022;2024-01-15T09:57:43;9.00;;;4.40;;
2622;SDS011;1321;48.690;9.022;2024-01-15T10:00:13;15.05;;;5.75;;
2622;SDS011;1321;48.690;9.022;2024-01-15T10:02:45;5.40;;;3.97;;
2622;SDS011;1321;48.690;9.022;2024-01-15T10:05:15;3.33;;;3.03;;
2622;SDS011;1321;48.690;9.022;2024-01-15T10:07:43;7.72;;;3.65;;
2622;SDS011;1321;48.690;9.022;2024-01-15T10:10:13;6.10;;;4.40;;
2622;SDS011;1321;48.690;9.022;2024-01-15T10:12:42;9.45;;;4.00;;
2622;SDS011;1321;48.690;9.022;2024-01-15T10:15:10;3.97;;;3.55;;
2622;SDS011;1321;48.690;9.022;2024-01-15T10:17:40;9.68;;;4.18;;
2622;SDS011;1321;48.690;9.022;2024-01-15T10:20:09;4.88;;;4.32;;
2622;SDS011;1321;48.690;9.022;2024-01-15T10:22:41;6.55;;;4.78;;
2622;SDS011;1321;48.690;9.022;2024-01-15T10:25:10;5.55;;;5.05;;
2622;SDS011;1321;48.690;9.022;2024-01-15T10:27:39;7.32;;;4.60;;
2622;SDS011;1321;48.690;9.022;2024-01-15T10:30:09;4.65;;;4.00;;
2622;SDS011;1321;48.690;9.022;2024-01-15T10:32:41;5.20;;;4.28;;
2622;SDS011;1321;48.690;9.022;2024-01-15T10:35:09;5.93;;;3.67;;
2622;SDS011;1321;48.690;9.022;2024-01-15T10:37:38;6.00;;;4.30;;
2622;SDS011;1321;48.690;9.022;2024-01-15T10:40:08;4.80;;;3.88;;
2622;SDS011;1321;48.690;9.022;2024-01-15T10:42:36;6.50;;;4.25;;
2622;SDS011;1321;48.690;9.022;2024-01-15T10:45:05;8.40;;;5.50;;
2622;SDS011;1321;48.690;9.022;2024-01-15T10:47:35;4.18;;;3.88;;
2622;SDS011;1321;48.690;9.022;2024-01-15T10:50:05;4.78;;;3.45;;
2622;SDS011;1321;48.690;9.022;2024-01-15T10:52:35;7.68;;;4.45;;
2622;SDS011;1321;48.690;9.022;2024-01-15T10:55:04;4.38;;;3.90;;
2622;SDS011;1321;48.690;9.022;2024-01-15T10:57:42;4.80;;;4.25;;
2622;SDS011;1321;48.690;9.022;2024-01-15T11:00:13;7.05;;;5.10;;
2622;SDS011;1321;48.690;9.022;2024-01-15T11:02:42;6.35;;;5.00;;
2622;SDS011;1321;48.690;9.022;2024-01-15T11:05:11;7.68;;;4.15;;
2622;SDS011;1321;48.690;9.022;2024-01-15T11:07:40;6.72;;;5.20;;
2622;SDS011;1321;48.690;9.022;2024-01-15T11:10:14;4.35;;;4.00;;
2622;SDS011;1321;48.690;9.022;2024-01-15T11:13:09;5.22;;;4.63;;
2622;SDS011;1321;48.690;9.022;2024-01-15T11:15:57;7.97;;;4.53;;
2622;SDS011;1321;48.690;9.022;2024-01-15T11:18:26;6.55;;;5.00;;
2622;SDS011;1321;48.690;9.022;2024-01-15T11:23:54;5.57;;;4.47;;
2622;SDS011;1321;48.690;9.022;2024-01-15T11:26:32;7.57;;;4.53;;
2622;SDS011;1321;48.690;9.022;2024-01-15T11:29:03;7.75;;;5.10;;
2622;SDS011;1321;48.690;9.022;2024-01-15T11:37:18;6.93;;;5.20;;
2622;SDS011;1321;48.690;9.022;2024-01-15T11:39:47;7.05;;;4.80;;
2622;SDS011;1321;48.690;9.022;2024-01-15T11:42:16;9.38;;;5.15;;
2622;SDS011;1321;48.690;9.022;2024-01-15T11:44:46;9.70;;;4.88;;
2622;SDS011;1321;48.690;9.022;2024-01-15T11:47:15;4.82;;;4.15;;
2622;SDS011;1321;48.690;9.022;2024-01-15T11:49:59;4.72;;;4.13;;
2622;SDS011;1321;48.690;9.022;2024-01-15T11:52:31;4.57;;;3.85;;
2622;SDS011;1321;48.690;9.022;2024-01-15T11:55:02;5.13;;;4.22;;
2622;SDS011;1321;48.690;9.022;2024-01-15T11:57:46;9.93;;;6.32;;
2622;SDS011;1321;48.690;9.022;2024-01-15T12:00:21;5.50;;;4.53;;
2622;SDS011;1321;48.690;9.022;2024-01-15T12:02:50;5.63;;;3.90;;
2622;SDS011;1321;48.690;9.022;2024-01-15T12:05:19;8.93;;;4.50;;
2622;SDS011;1321;48.690;9.022;2024-01-15T12:07:49;7.28;;;5.20;;
2622;SDS011;1321;48.690;9.022;2024-01-15T12:10:18;7.07;;;4.10;;
2622;SDS011;1321;48.690;9.022;2024-01-15T12:12:54;10.35;;;4.75;;
2622;SDS011;1321;48.690;9.022;2024-01-15T12:15:28;7.70;;;5.05;;
2622;SDS011;1321;48.690;9.022;2024-01-15T12:17:57;8.07;;;5.07;;
2622;SDS011;1321;48.690;9.022;2024-01-15T12:20:27;9.05;;;5.75;;
2622;SDS011;1321;48.690;9.022;2024-01-15T12:22:56;6.18;;;4.65;;
2622;SDS011;1321;48.690;9.022;2024-01-15T12:25:30;5.72;;;4.95;;
2622;SDS011;1321;48.690;9.022;2024-01-15T12:27:59;6.53;;;4.80;;
2622;SDS011;1321;48.690;9.022;2024-01-15T12:30:30;7.18;;;5.93;;
2622;SDS011;1321;48.690;9.022;2024-01-15T12:33:00;7.30;;;5.93;;
2622;SDS011;1321;48.690;9.022;2024-01-15T12:35:30;7.00;;;5.47;;
2622;SDS011;1321;48.690;9.022;2024-01-15T12:37:59;6.93;;;5.10;;
2622;SDS011;1321;48.690;9.022;2024-01-15T12:40:30;8.85;;;6.63;;
2622;SDS011;1321;48.690;9.022;2024-01-15T12:42:59;6.85;;;5.70;;
2622;SDS011;1321;48.690;9.022;2024-01-15T12:45:29;6.68;;;5.88;;
2622;SDS011;1321;48.690;9.022;2024-01-15T12:47:58;8.43;;;5.35;;
2622;SDS011;1321;48.690;9.022;2024-01-15T12:50:27;7.47;;;5.85;;
2622;SDS011;1321;48.690;9.022;2024-01-15T12:52:56;6.40;;;5.55;;
2622;SDS011;1321;48.690;9.022;2024-01-15T12:55:26;6.45;;;5.75;;
2622;SDS011;1321;48.690;9.022;2024-01-15T12:57:54;15.95;;;7.35;;
2622;SDS011;1321;48.690;9.022;2024-01-15T13:00:23;6.15;;;5.47;;
2622;SDS011;1321;48.690;9.022;2024-01-15T13:02:54;6.57;;;5.28;;
2622;SDS011;1321;48.690;9.022;2024-01-15T13:05:24;6.78;;;5.50;;
2622;SDS011;1321;48.690;9.022;2024-01-15T13:07:55;8.18;;;5.15;;
2622;SDS011;1321;48.690;9.022;2024-01-15T13:10:24;6.97;;;4.68;;
2622;SDS011;1321;48.690;9.022;2024-01-15T13:12:55;9.77;;;5.40;;
2622;SDS011;1321;48.690;9.022;2024-01-15T13:15:23;7.03;;;6.13;;
2622;SDS011;1321;48.690;9.022;2024-01-15T13:17:51;5.82;;;4.93;;
2622;SDS011;1321;48.690;9.022;2024-01-15T13:20:22;7.38;;;6.07;;
2622;SDS011;1321;48.690;9.022;2024-01-15T13:22:51;6.57;;;5.28;;
2622;SDS011;1321;48.690;9.022;2024-01-15T13:25:20;5.82;;;5.18;;
2622;SDS011;1321;48.690;9.022;2024-01-15T13:27:48;6.32;;;5.30;;
2622;SDS011;1321;48.690;9.022;2024-01-15T13:30:17;6.50;;;5.47;;
2622;SDS011;1321;48.690;9.022;2024-01-15T13:32:45;6.10;;;5.13;;
2622;SDS011;1321;48.690;9.022;2024-01-15T13:35:16;4.50;;;4.10;;
2622;SDS011;1321;48.690;9.022;2024-01-15T13:37:45;5.65;;;4.70;;
2622;SDS011;1321;48.690;9.022;2024-01-15T13:40:14;9.00;;;4.75;;
2622;SDS011;1321;48.690;9.022;2024-01-15T13:42:45;4.55;;;4.18;;
2622;SDS011;1321;48.690;9.022;2024-01-15T13:45:14;4.32;;;3.92;;
2622;SDS011;1321;48.690;9.022;2024-01-15T13:47:43;4.95;;;4.55;;
2622;SDS011;1321;48.690;9.022;2024-01-15T13:50:12;11.93;;;5.35;;
2622;SDS011;1321;48.690;9.022;2024-01-15T13:52:42;4.32;;;3.80;;
2622;SDS011;1321;48.690;9.022;2024-01-15T13:55:10;4.70;;;3.85;;
2622;SDS011;1321;48.690;9.022;2024-01-15T13:57:39;4.47;;;4.00;;
2622;SDS011;1321;48.690;9.022;2024-01-15T14:00:08;3.60;;;3.38;;
2622;SDS011;1321;48.690;9.022;2024-01-15T14:02:39;3.35;;;3.05;;
2622;SDS011;1321;48.690;9.022;2024-01-15T14:05:08;3.92;;;3.65;;
2622;SDS011;1321;48.690;9.022;2024-01-15T14:07:39;3.90;;;3.60;;
2622;SDS011;1321;48.690;9.022;2024-01-15T14:10:09;3.80;;;3.50;;
2622;SDS011;1321;48.690;9.022;2024-01-15T14:12:38;3.50;;;3.20;;
2622;SDS011;1321;48.690;9.022;2024-01-15T14:15:07;4.30;;;4.00;;
2622;SDS011;1321;48.690;9.022;2024-01-15T14:17:36;4.53;;;4.03;;
2622;SDS011;1321;48.690;9.022;2024-01-15T14:20:06;4.28;;;3.90;;
2622;SDS011;1321;48.690;9.022;2024-01-15T14:22:36;5.10;;;4.57;;
2622;SDS011;1321;48.690;9.022;2024-01-15T14:25:06;5.00;;;4.50;;
2622;SDS011;1321;48.690;9.022;2024-01-15T14:27:36;4.40;;;4.10;;
2622;SDS011;1321;48.690;9.022;2024-01-15T14:30:04;4.50;;;4.20;;
2622;SDS011;1321;48.690;9.022;2024-01-15T14:32:35;6.85;;;4.80;;
2622;SDS011;1321;48.690;9.022;2024-01-15T14:35:04;4.47;;;4.07;;
2622;SDS011;1321;48.690;9.022;2024-01-15T14:37:34;4.75;;;4.35;;
2622;SDS011;1321;48.690;9.022;2024-01-15T14:40:06;5.70;;;4.57;;
2622;SDS011;1321;48.690;9.022;2024-01-15T14:42:35;5.18;;;4.05;;
2622;SDS011;1321;48.690;9.022;2024-01-15T14:45:04;5.40;;;4.00;;
2622;SDS011;1321;48.690;9.022;2024-01-15T14:47:39;4.05;;;3.75;;
2622;SDS011;1321;48.690;9.022;2024-01-15T14:50:08;3.72;;;3.40;;
2622;SDS011;1321;48.690;9.022;2024-01-15T14:52:39;3.40;;;3.20;;
2622;SDS011;1321;48.690;9.022;2024-01-15T14:55:10;3.92;;;3.63;;
2622;SDS011;1321;48.690;9.022;2024-01-15T14:57:38;3.97;;;3.67;;
2622;SDS011;1321;48.690;9.022;2024-01-15T15:00:07;3.70;;;3.50;;
2622;SDS011;1321;48.690;9.022;2024-01-15T15:02:36;3.60;;;3.40;;
2622;SDS011;1321;48.690;9.022;2024-01-15T15:05:05;3.40;;;3.20;;
2622;SDS011;1321;48.690;9.022;2024-01-15T15:07:35;3.50;;;3.20;;
2622;SDS011;1321;48.690;9.022;2024-01-15T15:10:04;4.80;;;4.40;;
2622;SDS011;1321;48.690;9.022;2024-01-15T15:12:35;5.07;;;4.78;;
2622;SDS011;1321;48.690;9.022;2024-01-15T15:15:03;4.85;;;4.32;;
2622;SDS011;1321;48.690;9.022;2024-01-15T15:17:38;3.67;;;3.38;;
2622;SDS011;1321;48.690;9.022;2024-01-15T15:20:07;4.25;;;3.97;;
2622;SDS011;1321;48.690;9.022;2024-01-15T15:22:36;6.00;;;3.75;;
2622;SDS011;1321;48.690;9.022;2024-01-15T15:25:05;4.28;;;3.97;;
2622;SDS011;1321;48.690;9.022;2024-01-15T15:27:37;5.43;;;4.78;;
2622;SDS011;1321;48.690;9.022;2024-01-15T15:30:07;5.47;;;5.07;;
2622;SDS011;1321;48.690;9.022;2024-01-15T15:32:36;5.32;;;4.70;;